Terminal Aerodrome Forecast
Issued by NWS Charleston, WV

Current Version | Previous Version | Graphics & Text | Print | Product List | Glossary On
Versions: 1 2 3 4 5 6 7 8 9 10 11 12 13 14 15 16 17 18 19 20 21 22 23 24
000
FTUS41 KRLX 291100
TAFPKB
TAF
KPKB 291120Z 2912/3012 23005KT P6SM BKN140
     FM291800 26014G21KT P6SM SCT060
     FM292300 29010G15KT P6SM BKN040
     FM300200 29006KT P6SM BKN040
     FM300800 00000KT 5SM BR SCT030=

USA.gov is the U.S. government's official web portal to all federal, state and local government web resources and services.